Time;durP1;ratioP1;P1;durP2;ratioP2;P2;SDS_P1;SDS_P2;PMS_P1;PMS_P2;Temp;Humidity;BMP_temperature;BMP_pressure;BME280_temperature;BME280_humidity;BME280_pressure;Samples;Min_cycle;Max_cycle;Signal;HPM_P1;HPM_P2
2023/04/26 00:01:11;;;;;;;;;;;22.20;80.40;;;;;;5114553;28;20386;-55
2023/04/26 00:03:36;;;;;;;;;;;22.10;80.50;;;;;;5114253;28;19960;-53
2023/04/26 00:06:04;;;;;;;;;;;22.10;80.70;;;;;;5114476;28;20438;-53
2023/04/26 00:08:30;;;;;;;;;;;22.00;80.90;;;;;;5114169;28;20328;-50
2023/04/26 00:10:55;;;;;;;;;;;21.90;81.00;;;;;;5114590;28;19911;-53
2023/04/26 00:13:21;;;;;;;;;;;21.90;81.30;;;;;;5114324;28;20274;-54
2023/04/26 00:15:46;;;;;;;;;;;21.80;81.40;;;;;;5114124;28;19951;-51
2023/04/26 00:18:12;;;;;;;;;;;21.70;81.50;;;;;;5112830;28;19911;-55
2023/04/26 00:20:38;;;;;;;;;;;21.60;81.70;;;;;;5114683;28;19911;-53
2023/04/26 00:23:03;;;;;;;;;;;21.60;81.90;;;;;;5114393;28;19907;-53
2023/04/26 00:25:29;;;;;;;;;;;21.60;82.10;;;;;;5114154;28;20320;-53
2023/04/26 00:27:54;;;;;;;;;;;21.50;82.00;;;;;;5113008;28;19908;-53
2023/04/26 00:30:20;;;;;;;;;;;21.50;82.10;;;;;;5117071;28;19908;-54
2023/04/26 00:32:46;;;;;;;;;;;21.50;82.10;;;;;;5118031;28;19907;-54
2023/04/26 00:35:12;;;;;;;;;;;21.50;82.00;;;;;;5118045;28;19999;-54
2023/04/26 00:37:37;;;;;;;;;;;21.50;82.00;;;;;;5118396;28;20082;-52
2023/04/26 00:40:04;;;;;;;;;;;21.50;81.90;;;;;;5117131;28;19915;-51
2023/04/26 00:42:30;;;;;;;;;;;21.70;81.60;;;;;;5116898;28;20003;-50
2023/04/26 00:44:56;;;;;;;;;;;22.00;81.30;;;;;;5117957;28;19959;-52
2023/04/26 00:47:23;;;;;;;;;;;22.20;80.90;;;;;;5117673;28;20263;-51
2023/04/26 00:49:48;;;;;;;;;;;22.30;80.50;;;;;;5118054;28;19908;-50
2023/04/26 00:52:14;;;;;;;;;;;22.40;80.20;;;;;;5117995;28;19915;-48
2023/04/26 00:54:39;;;;;;;;;;;22.40;80.10;;;;;;5117910;28;20350;-52
2023/04/26 00:57:06;;;;;;;;;;;22.30;80.10;;;;;;5117517;28;19914;-50
2023/04/26 00:59:33;;;;;;;;;;;22.30;80.30;;;;;;5117530;28;20367;-50
2023/04/26 01:01:59;;;;;;;;;;;22.20;80.50;;;;;;5117556;28;19912;-49
2023/04/26 01:04:26;;;;;;;;;;;22.10;80.60;;;;;;5117755;28;19908;-53
2023/04/26 01:06:51;;;;;;;;;;;22.00;80.90;;;;;;5117641;28;19954;-52
2023/04/26 01:09:17;;;;;;;;;;;22.00;81.50;;;;;;5117672;28;19947;-53
2023/04/26 01:11:43;;;;;;;;;;;21.90;81.20;;;;;;5117545;28;20266;-52
2023/04/26 01:14:09;;;;;;;;;;;21.90;81.30;;;;;;5117508;28;19908;-50
2023/04/26 01:16:34;;;;;;;;;;;21.80;81.60;;;;;;5115970;27;20377;-52
2023/04/26 01:19:12;;;;;;;;;;;21.70;81.20;;;;;;5117324;28;19912;-49
2023/04/26 01:21:38;;;;;;;;;;;21.70;81.50;;;;;;5122045;27;19945;-53
2023/04/26 01:24:04;;;;;;;;;;;21.60;81.50;;;;;;5126646;27;19911;-52
2023/04/26 01:26:30;;;;;;;;;;;21.60;81.70;;;;;;5137568;27;20366;-49
2023/04/26 01:28:56;;;;;;;;;;;21.50;81.60;;;;;;5122666;27;20002;-53
2023/04/26 01:31:22;;;;;;;;;;;21.60;81.80;;;;;;5130140;27;19951;-48
2023/04/26 01:33:47;;;;;;;;;;;21.60;81.60;;;;;;5116606;28;19912;-50
2023/04/26 01:36:13;;;;;;;;;;;21.80;81.50;;;;;;5129306;27;20353;-50
2023/04/26 01:38:38;;;;;;;;;;;22.00;81.20;;;;;;5116897;28;19922;-52
2023/04/26 01:41:04;;;;;;;;;;;22.10;80.80;;;;;;5123180;27;19911;-50
2023/04/26 01:43:29;;;;;;;;;;;22.20;80.50;;;;;;5135880;27;19919;-51
2023/04/26 01:45:55;;;;;;;;;;;22.20;80.40;;;;;;5116864;27;19958;-51
2023/04/26 01:48:20;;;;;;;;;;;22.20;80.20;;;;;;5125924;27;19922;-53
2023/04/26 01:50:46;;;;;;;;;;;22.20;80.40;;;;;;5121717;27;19918;-52
2023/04/26 01:53:11;;;;;;;;;;;22.20;80.60;;;;;;5117049;28;19908;-48
2023/04/26 01:55:37;;;;;;;;;;;22.10;80.70;;;;;;5116230;28;19908;-52
2023/04/26 01:58:02;;;;;;;;;;;22.00;80.80;;;;;;5116865;27;20228;-52
2023/04/26 02:00:28;;;;;;;;;;;22.00;80.90;;;;;;5116741;28;19912;-52
2023/04/26 02:02:57;;;;;;;;;;;21.90;81.10;;;;;;5113912;28;19912;-51
2023/04/26 02:05:23;;;;;;;;;;;21.80;81.10;;;;;;5116524;28;19951;-48
2023/04/26 02:07:49;;;;;;;;;;;21.80;81.20;;;;;;5115209;28;19907;-51
2023/04/26 02:10:14;;;;;;;;;;;21.70;81.30;;;;;;5116101;28;19931;-52
2023/04/26 02:12:40;;;;;;;;;;;21.60;81.40;;;;;;5115921;28;19908;-49
2023/04/26 02:15:07;;;;;;;;;;;21.60;81.60;;;;;;5115995;28;19908;-54
2023/04/26 02:17:32;;;;;;;;;;;21.50;81.70;;;;;;5115957;28;19958;-50
2023/04/26 02:19:58;;;;;;;;;;;21.50;81.70;;;;;;5116005;28;19965;-54
2023/04/26 02:22:24;;;;;;;;;;;21.50;81.50;;;;;;5114844;28;19986;-54
2023/04/26 02:24:51;;;;;;;;;;;21.40;81.60;;;;;;5115793;28;20417;-49
2023/04/26 02:27:16;;;;;;;;;;;21.40;81.80;;;;;;5115938;28;19908;-50
2023/04/26 02:29:42;;;;;;;;;;;21.50;81.90;;;;;;5115851;28;20261;-53
2023/04/26 02:32:07;;;;;;;;;;;21.50;81.80;;;;;;5114350;28;19914;-50
2023/04/26 02:34:33;;;;;;;;;;;21.70;81.70;;;;;;5115557;28;20243;-49
2023/04/26 02:36:58;;;;;;;;;;;21.90;81.30;;;;;;5115930;28;19904;-49
2023/04/26 02:39:24;;;;;;;;;;;22.10;80.90;;;;;;5115516;28;20334;-49
2023/04/26 02:41:50;;;;;;;;;;;22.30;80.30;;;;;;5115894;28;19908;-52
2023/04/26 02:44:15;;;;;;;;;;;22.40;80.10;;;;;;5115896;28;19939;-50
2023/04/26 02:46:41;;;;;;;;;;;22.40;80.00;;;;;;5115518;28;19910;-49
2023/04/26 02:49:06;;;;;;;;;;;22.40;80.00;;;;;;5115427;28;19968;-53
2023/04/26 02:51:32;;;;;;;;;;;22.30;80.20;;;;;;5115692;28;20227;-54
2023/04/26 02:53:58;;;;;;;;;;;22.20;80.40;;;;;;5115553;28;19904;-51
2023/04/26 02:56:24;;;;;;;;;;;22.20;80.30;;;;;;5115589;28;19911;-50
2023/04/26 02:58:50;;;;;;;;;;;22.10;80.70;;;;;;5115736;28;19948;-51
2023/04/26 03:01:16;;;;;;;;;;;22.00;80.80;;;;;;5115463;28;20312;-50
2023/04/26 03:03:42;;;;;;;;;;;22.00;81.20;;;;;;5115134;28;19907;-51
2023/04/26 03:06:07;;;;;;;;;;;21.90;81.40;;;;;;5115179;28;20259;-52
2023/04/26 03:08:34;;;;;;;;;;;21.80;81.60;;;;;;5115087;28;19904;-51
2023/04/26 03:11:00;;;;;;;;;;;21.70;81.70;;;;;;5115315;28;19904;-51
2023/04/26 03:13:25;;;;;;;;;;;21.60;81.80;;;;;;5115267;28;19904;-51
2023/04/26 03:15:52;;;;;;;;;;;21.60;81.90;;;;;;5115505;28;19964;-53
2023/04/26 03:18:17;;;;;;;;;;;21.60;82.00;;;;;;5113765;28;19933;-52
2023/04/26 03:20:44;;;;;;;;;;;21.50;82.00;;;;;;5115419;28;19976;-54
2023/04/26 03:23:09;;;;;;;;;;;21.50;82.10;;;;;;5115430;28;19903;-50
2023/04/26 03:25:35;;;;;;;;;;;21.40;82.20;;;;;;5115010;28;20335;-50
2023/04/26 03:28:01;;;;;;;;;;;21.40;82.30;;;;;;5114740;28;19914;-51
2023/04/26 03:30:26;;;;;;;;;;;21.40;82.40;;;;;;5115305;28;19964;-52
2023/04/26 03:32:52;;;;;;;;;;;21.40;82.30;;;;;;5114591;28;20365;-51
2023/04/26 03:35:17;;;;;;;;;;;21.40;82.40;;;;;;5114837;28;20227;-52
2023/04/26 03:37:43;;;;;;;;;;;21.40;82.50;;;;;;5114992;28;19998;-50
2023/04/26 03:40:09;;;;;;;;;;;21.40;82.60;;;;;;5114887;28;19908;-52
2023/04/26 03:42:35;;;;;;;;;;;21.40;82.60;;;;;;5114613;28;19922;-49
2023/04/26 03:45:02;;;;;;;;;;;21.30;82.70;;;;;;5114555;28;19969;-50
2023/04/26 03:47:28;;;;;;;;;;;21.30;82.80;;;;;;5113409;28;19908;-53
2023/04/26 03:49:54;;;;;;;;;;;21.20;82.80;;;;;;5114302;28;19904;-50
2023/04/26 03:52:19;;;;;;;;;;;21.20;82.90;;;;;;5114690;28;19969;-51
2023/04/26 03:54:45;;;;;;;;;;;21.20;83.10;;;;;;5114534;28;19904;-52
2023/04/26 03:57:10;;;;;;;;;;;21.10;83.10;;;;;;5114309;28;19947;-50
2023/04/26 03:59:36;;;;;;;;;;;21.10;83.20;;;;;;5114582;28;19914;-51
2023/04/26 04:02:02;;;;;;;;;;;21.10;83.30;;;;;;5114243;28;19910;-50
2023/04/26 04:04:27;;;;;;;;;;;21.00;83.40;;;;;;5116904;28;19904;-52
2023/04/26 04:06:53;;;;;;;;;;;21.00;83.50;;;;;;5120993;27;20265;-50
2023/04/26 04:09:18;;;;;;;;;;;21.00;83.50;;;;;;5121046;27;19903;-51
2023/04/26 04:11:44;;;;;;;;;;;20.90;83.60;;;;;;5120970;27;20243;-52
2023/04/26 04:14:10;;;;;;;;;;;20.90;83.60;;;;;;5120958;27;19948;-52
2023/04/26 04:16:35;;;;;;;;;;;20.90;83.70;;;;;;5120971;27;19960;-52
2023/04/26 04:19:01;;;;;;;;;;;20.80;83.70;;;;;;5120681;27;19912;-50
2023/04/26 04:21:26;;;;;;;;;;;20.80;83.80;;;;;;5120863;27;19914;-53
2023/04/26 04:23:52;;;;;;;;;;;20.80;83.90;;;;;;5121080;27;19904;-51
2023/04/26 04:26:18;;;;;;;;;;;20.70;83.90;;;;;;5120798;28;19910;-53
2023/04/26 04:28:44;;;;;;;;;;;20.70;84.00;;;;;;5121085;27;19904;-51
2023/04/26 04:31:10;;;;;;;;;;;20.60;84.00;;;;;;5120982;27;20381;-54
2023/04/26 04:33:36;;;;;;;;;;;20.60;84.10;;;;;;5120726;27;19943;-49
2023/04/26 04:36:01;;;;;;;;;;;20.60;84.10;;;;;;5121025;27;20006;-52
2023/04/26 04:38:28;;;;;;;;;;;20.60;84.20;;;;;;5120493;27;20003;-53
2023/04/26 04:40:53;;;;;;;;;;;20.50;84.30;;;;;;5121358;27;19908;-54
2023/04/26 04:43:20;;;;;;;;;;;20.50;84.40;;;;;;5120924;27;19966;-54
2023/04/26 04:45:46;;;;;;;;;;;20.50;84.50;;;;;;5120501;27;19911;-54
2023/04/26 04:48:12;;;;;;;;;;;20.50;84.50;;;;;;5119577;28;19933;-51
2023/04/26 04:50:38;;;;;;;;;;;20.40;84.60;;;;;;5120950;27;19904;-50
2023/04/26 04:53:05;;;;;;;;;;;20.40;84.70;;;;;;5120078;28;20295;-54
2023/04/26 04:55:31;;;;;;;;;;;20.40;84.70;;;;;;5120670;27;19931;-50
2023/04/26 04:57:56;;;;;;;;;;;20.40;84.80;;;;;;5120689;27;19966;-53
2023/04/26 05:00:22;;;;;;;;;;;20.30;84.80;;;;;;5120671;27;20188;-54
2023/04/26 05:02:47;;;;;;;;;;;20.30;84.80;;;;;;5120461;27;19904;-51
2023/04/26 05:05:13;;;;;;;;;;;20.30;84.90;;;;;;5120533;27;19958;-54
2023/04/26 05:07:38;;;;;;;;;;;20.30;85.00;;;;;;5120610;27;19911;-51
2023/04/26 05:10:04;;;;;;;;;;;20.30;85.00;;;;;;5118926;27;20433;-54
2023/04/26 05:12:29;;;;;;;;;;;20.20;85.00;;;;;;5120294;27;20007;-54
2023/04/26 05:14:55;;;;;;;;;;;20.20;85.00;;;;;;5120292;27;19904;-51
2023/04/26 05:17:20;;;;;;;;;;;20.20;85.00;;;;;;5115855;28;20258;-50
2023/04/26 05:19:46;;;;;;;;;;;20.10;85.00;;;;;;5117025;28;19914;-52
2023/04/26 05:22:19;;;;;;;;;;;20.20;85.20;;;;;;5117134;28;19973;-53
2023/04/26 05:24:46;;;;;;;;;;;20.10;85.20;;;;;;5115241;28;20378;-54
2023/04/26 05:27:12;;;;;;;;;;;20.10;85.20;;;;;;5113069;28;19908;-53
2023/04/26 05:29:37;;;;;;;;;;;20.10;85.30;;;;;;5114668;27;19995;-54
2023/04/26 05:32:03;;;;;;;;;;;20.10;85.50;;;;;;5114472;28;19956;-51
2023/04/26 05:34:29;;;;;;;;;;;20.10;85.50;;;;;;5116480;27;20286;-54
2023/04/26 05:36:54;;;;;;;;;;;20.10;85.50;;;;;;5116716;28;20320;-54
2023/04/26 05:39:20;;;;;;;;;;;20.10;85.50;;;;;;5116618;28;19911;-53
2023/04/26 05:41:45;;;;;;;;;;;20.10;85.50;;;;;;5114964;28;19938;-54
2023/04/26 05:44:11;;;;;;;;;;;20.10;85.60;;;;;;5123503;27;20422;-52
2023/04/26 05:46:37;;;;;;;;;;;20.00;85.30;;;;;;5111483;28;20238;-52
2023/04/26 05:49:02;;;;;;;;;;;20.00;85.00;;;;;;5116587;28;19915;-53
2023/04/26 05:51:28;;;;;;;;;;;20.00;85.00;;;;;;5125330;27;20004;-54
2023/04/26 05:53:53;;;;;;;;;;;20.00;83.60;;;;;;5136363;27;19907;-53
2023/04/26 05:56:19;;;;;;;;;;;19.90;85.00;;;;;;5127589;27;20748;-54
2023/04/26 05:58:45;;;;;;;;;;;19.90;85.40;;;;;;5116105;28;19919;-53
2023/04/26 06:01:11;;;;;;;;;;;19.90;85.40;;;;;;5113286;27;19923;-53
2023/04/26 06:03:37;;;;;;;;;;;19.90;85.50;;;;;;5119226;27;19911;-53
2023/04/26 06:06:02;;;;;;;;;;;19.90;85.40;;;;;;5116581;27;19912;-56
2023/04/26 06:08:28;;;;;;;;;;;19.90;85.30;;;;;;5122539;27;19976;-57
2023/04/26 06:10:53;;;;;;;;;;;19.90;85.40;;;;;;5136382;27;20419;-58
2023/04/26 06:13:19;;;;;;;;;;;19.90;85.40;;;;;;5136662;27;19907;-55
2023/04/26 06:15:44;;;;;;;;;;;19.80;85.40;;;;;;5122646;27;19911;-58
2023/04/26 06:18:10;;;;;;;;;;;19.80;85.40;;;;;;5117736;27;19926;-61
2023/04/26 06:20:35;;;;;;;;;;;19.90;85.50;;;;;;5117148;27;19919;-59
2023/04/26 06:23:01;;;;;;;;;;;19.80;85.50;;;;;;5135136;27;20277;-58
2023/04/26 06:25:26;;;;;;;;;;;19.80;85.60;;;;;;5131284;27;20036;-58
2023/04/26 06:27:52;;;;;;;;;;;19.80;85.60;;;;;;5135363;27;19934;-61
2023/04/26 06:30:18;;;;;;;;;;;19.80;85.60;;;;;;5134102;27;20351;-56
2023/04/26 06:32:43;;;;;;;;;;;19.80;85.70;;;;;;5120280;27;20068;-61
2023/04/26 06:35:09;;;;;;;;;;;19.80;85.70;;;;;;5135881;27;19908;-56
2023/04/26 06:37:35;;;;;;;;;;;19.80;85.80;;;;;;5114684;27;19911;-61
2023/04/26 06:40:01;;;;;;;;;;;19.80;85.80;;;;;;5115552;28;19962;-58
2023/04/26 06:42:26;;;;;;;;;;;19.80;85.80;;;;;;5120986;27;20284;-60
2023/04/26 06:44:52;;;;;;;;;;;19.80;85.90;;;;;;5115163;27;19912;-61
2023/04/26 06:47:17;;;;;;;;;;;19.70;85.90;;;;;;5131825;27;20438;-61
2023/04/26 06:49:43;;;;;;;;;;;19.80;86.00;;;;;;5129032;27;19916;-60
2023/04/26 06:52:08;;;;;;;;;;;19.70;85.80;;;;;;5112756;28;19912;-62
2023/04/26 06:54:34;;;;;;;;;;;19.70;85.80;;;;;;5127778;27;20372;-62
2023/04/26 06:56:59;;;;;;;;;;;19.70;85.90;;;;;;5113205;28;19934;-63
2023/04/26 06:59:25;;;;;;;;;;;19.70;86.00;;;;;;5120166;27;19966;-63
2023/04/26 07:01:51;;;;;;;;;;;19.70;86.00;;;;;;5111689;28;19927;-62
2023/04/26 07:04:17;;;;;;;;;;;19.70;86.00;;;;;;5110638;28;20435;-63
2023/04/26 07:06:43;;;;;;;;;;;19.70;86.00;;;;;;5111096;28;19912;-63
2023/04/26 07:09:08;;;;;;;;;;;19.70;86.10;;;;;;5128885;27;19911;-60
2023/04/26 07:11:34;;;;;;;;;;;19.70;86.30;;;;;;5131120;27;19911;-60
2023/04/26 07:14:00;;;;;;;;;;;19.70;86.20;;;;;;5114455;27;21354;-59
2023/04/26 07:16:26;;;;;;;;;;;19.70;86.30;;;;;;5135537;27;19911;-61
2023/04/26 07:18:52;;;;;;;;;;;19.60;86.30;;;;;;5120982;27;19915;-62
2023/04/26 07:21:17;;;;;;;;;;;19.70;86.40;;;;;;5124804;27;19947;-59
2023/04/26 07:23:43;;;;;;;;;;;19.70;86.50;;;;;;5122871;27;20385;-60
2023/04/26 07:26:11;;;;;;;;;;;19.60;86.40;;;;;;5113922;27;19912;-60
2023/04/26 07:28:36;;;;;;;;;;;19.70;86.50;;;;;;5132111;27;19912;-61
2023/04/26 07:31:02;;;;;;;;;;;19.60;86.40;;;;;;5131102;27;19915;-61
2023/04/26 07:33:28;;;;;;;;;;;19.60;86.40;;;;;;5114229;28;19914;-60
2023/04/26 07:35:55;;;;;;;;;;;19.60;86.50;;;;;;5114357;28;20289;-56
2023/04/26 07:38:21;;;;;;;;;;;19.60;87.00;;;;;;5130094;27;20477;-62
2023/04/26 07:40:46;;;;;;;;;;;19.60;86.50;;;;;;5121388;27;19920;-59
2023/04/26 07:43:14;;;;;;;;;;;19.60;86.40;;;;;;5114520;28;19942;-59
2023/04/26 07:45:40;;;;;;;;;;;19.60;86.50;;;;;;5110902;28;20376;-59
2023/04/26 07:48:05;;;;;;;;;;;19.60;86.60;;;;;;5112680;28;19953;-60
2023/04/26 07:50:31;;;;;;;;;;;19.60;86.40;;;;;;5114851;28;19919;-60
2023/04/26 07:52:56;;;;;;;;;;;19.60;86.60;;;;;;5111289;28;19912;-61
2023/04/26 07:55:22;;;;;;;;;;;19.60;86.60;;;;;;5115809;28;19911;-61
2023/04/26 07:57:47;;;;;;;;;;;19.60;86.40;;;;;;5113672;27;19919;-59
2023/04/26 08:00:14;;;;;;;;;;;19.60;86.60;;;;;;5113539;28;20354;-58
2023/04/26 08:02:40;;;;;;;;;;;19.60;86.60;;;;;;5124197;28;19919;-59
2023/04/26 08:05:05;;;;;;;;;;;19.60;86.70;;;;;;5134994;27;19908;-59
2023/04/26 08:07:31;;;;;;;;;;;19.60;86.70;;;;;;5122157;27;19915;-59
2023/04/26 08:09:56;;;;;;;;;;;19.50;86.70;;;;;;5114366;28;19908;-57
2023/04/26 08:12:22;;;;;;;;;;;19.50;86.60;;;;;;5123008;28;19919;-61
2023/04/26 08:14:47;;;;;;;;;;;19.50;86.70;;;;;;5120219;27;19912;-59
2023/04/26 08:17:13;;;;;;;;;;;19.50;86.70;;;;;;5130165;28;20409;-57
2023/04/26 08:19:40;;;;;;;;;;;19.50;86.70;;;;;;5127506;27;19916;-61
2023/04/26 08:22:06;;;;;;;;;;;19.50;86.70;;;;;;5109322;28;19969;-56
2023/04/26 08:24:31;;;;;;;;;;;19.50;86.80;;;;;;5109747;28;19915;-59
2023/04/26 08:26:57;;;;;;;;;;;19.50;86.80;;;;;;5117848;28;19918;-58
2023/04/26 08:29:23;;;;;;;;;;;19.50;86.80;;;;;;5134320;27;20311;-61
2023/04/26 08:31:49;;;;;;;;;;;19.50;86.80;;;;;;5128793;27;19911;-59
2023/04/26 08:34:14;;;;;;;;;;;19.50;86.80;;;;;;5114442;27;19919;-62
2023/04/26 08:36:40;;;;;;;;;;;19.50;86.70;;;;;;5109345;28;19911;-62
2023/04/26 08:39:06;;;;;;;;;;;19.50;86.80;;;;;;5112785;28;19916;-62
2023/04/26 08:41:35;;;;;;;;;;;19.50;86.70;;;;;;5112618;28;19920;-61
2023/04/26 08:44:04;;;;;;;;;;;19.50;87.00;;;;;;5130293;27;19928;-63
2023/04/26 08:46:35;;;;;;;;;;;19.50;86.90;;;;;;5129726;27;20021;-61
2023/04/26 08:49:24;;;;;;;;;;;19.50;86.80;;;;;;5112636;28;19954;-60
2023/04/26 08:51:50;;;;;;;;;;;19.40;87.00;;;;;;5097900;27;19920;-62
2023/04/26 08:54:17;;;;;;;;;;;19.50;87.00;;;;;;5118385;27;19912;-63
2023/04/26 08:56:43;;;;;;;;;;;19.50;87.00;;;;;;5116219;28;20048;-60
2023/04/26 08:59:08;;;;;;;;;;;19.50;87.10;;;;;;5115925;27;20002;-60
2023/04/26 09:01:35;;;;;;;;;;;19.50;87.20;;;;;;5116680;27;20008;-61
2023/04/26 09:04:02;;;;;;;;;;;19.50;87.40;;;;;;5133362;27;19922;-61
2023/04/26 09:06:27;;;;;;;;;;;19.50;87.30;;;;;;5124975;27;20021;-60
2023/04/26 09:08:53;;;;;;;;;;;19.40;87.10;;;;;;5114649;28;19943;-59
2023/04/26 09:11:19;;;;;;;;;;;19.40;86.40;;;;;;5117771;28;20302;-56
2023/04/26 09:13:44;;;;;;;;;;;19.40;87.10;;;;;;5129806;27;19959;-57
2023/04/26 09:16:10;;;;;;;;;;;19.40;87.10;;;;;;5135896;27;19965;-58
2023/04/26 09:18:45;;;;;;;;;;;19.40;87.30;;;;;;5116564;27;20011;-58
2023/04/26 09:21:12;;;;;;;;;;;19.40;87.30;;;;;;5117232;27;19919;-59
2023/04/26 09:23:55;;;;;;;;;;;19.40;86.60;;;;;;5122904;27;19912;-59
2023/04/26 09:26:21;;;;;;;;;;;19.40;87.20;;;;;;5113970;28;20370;-59
2023/04/26 09:28:47;;;;;;;;;;;19.30;86.80;;;;;;5113313;28;19919;-62
2023/04/26 09:31:35;;;;;;;;;;;19.30;86.20;;;;;;5117170;28;19908;-59
2023/04/26 09:34:00;;;;;;;;;;;19.30;86.30;;;;;;5136736;27;20414;-58
2023/04/26 09:36:26;;;;;;;;;;;19.30;86.20;;;;;;5123191;27;19908;-58
2023/04/26 09:38:52;;;;;;;;;;;19.30;86.10;;;;;;5123074;27;19916;-58
2023/04/26 09:41:17;;;;;;;;;;;19.30;86.10;;;;;;5115767;28;20330;-60
2023/04/26 09:43:43;;;;;;;;;;;19.30;86.10;;;;;;5116908;27;19922;-59
2023/04/26 09:46:08;;;;;;;;;;;19.30;86.20;;;;;;5120105;27;19908;-59
2023/04/26 09:48:34;;;;;;;;;;;19.30;86.20;;;;;;5137257;27;20257;-60
2023/04/26 09:51:02;;;;;;;;;;;19.30;86.20;;;;;;5132089;27;19908;-56
2023/04/26 09:53:36;;;;;;;;;;;19.20;86.20;;;;;;5134740;27;19912;-59
2023/04/26 09:56:07;;;;;;;;;;;19.30;86.30;;;;;;5134126;27;20351;-60
2023/04/26 09:58:32;;;;;;;;;;;19.20;86.30;;;;;;5137077;27;19907;-60
2023/04/26 10:00:58;;;;;;;;;;;19.20;86.30;;;;;;5131774;27;20043;-60
2023/04/26 10:03:24;;;;;;;;;;;19.20;86.40;;;;;;5115728;28;19998;-60
2023/04/26 10:05:49;;;;;;;;;;;19.20;86.40;;;;;;5115266;28;19907;-59
2023/04/26 10:08:15;;;;;;;;;;;19.20;86.50;;;;;;5115080;28;19908;-56
2023/04/26 10:10:41;;;;;;;;;;;19.20;86.50;;;;;;5115880;28;19915;-60
2023/04/26 10:13:07;;;;;;;;;;;19.20;86.60;;;;;;5124228;27;19907;-58
2023/04/26 10:15:33;;;;;;;;;;;19.20;86.60;;;;;;5129875;27;20265;-56
2023/04/26 10:17:58;;;;;;;;;;;19.10;86.60;;;;;;5122706;27;19912;-59
2023/04/26 10:20:27;;;;;;;;;;;19.20;86.70;;;;;;5115378;27;19964;-59
2023/04/26 10:22:59;;;;;;;;;;;19.20;86.80;;;;;;5114339;28;20317;-58
2023/04/26 10:25:35;;;;;;;;;;;19.20;86.80;;;;;;5113953;27;20311;-59
2023/04/26 10:28:02;;;;;;;;;;;19.20;86.80;;;;;;5117374;27;19908;-58
2023/04/26 10:30:27;;;;;;;;;;;19.20;86.90;;;;;;5115919;28;20330;-59
2023/04/26 10:32:59;;;;;;;;;;;19.10;87.00;;;;;;5115938;27;19904;-61
2023/04/26 10:35:25;;;;;;;;;;;19.10;87.10;;;;;;5133016;27;19908;-60
2023/04/26 10:38:00;;;;;;;;;;;19.10;87.30;;;;;;5135968;27;19911;-61
2023/04/26 10:40:32;;;;;;;;;;;19.10;87.40;;;;;;5114773;27;19912;-58
2023/04/26 10:43:10;;;;;;;;;;;19.10;87.30;;;;;;5114431;27;19915;-58
2023/04/26 10:45:36;;;;;;;;;;;19.10;87.50;;;;;;5115378;28;19904;-59
2023/04/26 10:48:18;;;;;;;;;;;19.10;87.40;;;;;;5131887;27;19911;-61
2023/04/26 10:51:11;;;;;;;;;;;19.10;87.40;;;;;;5136647;27;20330;-63
2023/04/26 10:53:45;;;;;;;;;;;19.10;87.40;;;;;;5095342;28;19915;-61
2023/04/26 10:56:23;;;;;;;;;;;19.10;87.50;;;;;;5107263;28;20014;-63
2023/04/26 10:59:05;;;;;;;;;;;19.10;87.40;;;;;;5114011;28;19918;-63
2023/04/26 11:01:31;;;;;;;;;;;19.00;87.50;;;;;;5112798;28;20313;-62
2023/04/26 11:03:56;;;;;;;;;;;19.00;87.50;;;;;;5113535;27;19908;-62
2023/04/26 11:06:22;;;;;;;;;;;19.00;87.60;;;;;;5114845;27;19907;-59
2023/04/26 11:08:48;;;;;;;;;;;19.00;87.70;;;;;;5124237;27;20250;-58
2023/04/26 11:11:15;;;;;;;;;;;19.00;87.60;;;;;;5119872;27;20036;-58
2023/04/26 11:13:41;;;;;;;;;;;19.00;87.70;;;;;;5112015;28;19903;-61
2023/04/26 11:16:08;;;;;;;;;;;19.00;87.80;;;;;;5133363;27;19910;-60
2023/04/26 11:18:34;;;;;;;;;;;19.00;87.70;;;;;;5127249;27;19912;-59
2023/04/26 11:21:00;;;;;;;;;;;19.00;87.80;;;;;;5113542;28;19914;-61
2023/04/26 11:23:29;;;;;;;;;;;19.00;87.80;;;;;;5114936;27;19915;-63
2023/04/26 11:25:59;;;;;;;;;;;19.00;87.90;;;;;;5132731;27;19914;-62
2023/04/26 11:28:24;;;;;;;;;;;19.00;88.50;;;;;;5107952;28;19915;-63
2023/04/26 11:30:50;;;;;;;;;;;19.00;87.90;;;;;;5118267;27;20265;-63
2023/04/26 11:33:19;;;;;;;;;;;19.00;87.90;;;;;;5117848;27;19912;-63
2023/04/26 11:35:45;;;;;;;;;;;18.90;87.90;;;;;;5123844;27;19960;-61
2023/04/26 11:38:11;;;;;;;;;;;18.90;87.90;;;;;;5115520;27;19915;-61
2023/04/26 11:40:36;;;;;;;;;;;18.90;87.90;;;;;;5120946;27;20300;-61
2023/04/26 11:43:05;;;;;;;;;;;18.90;88.00;;;;;;5122669;27;19915;-62
2023/04/26 11:45:35;;;;;;;;;;;18.90;88.00;;;;;;5126489;27;19914;-63
2023/04/26 11:48:09;;;;;;;;;;;18.90;88.10;;;;;;5132371;27;19951;-63
2023/04/26 11:50:35;;;;;;;;;;;18.90;88.10;;;;;;5131006;27;19908;-64
2023/04/26 11:53:02;;;;;;;;;;;18.90;88.10;;;;;;5128594;27;20294;-63
2023/04/26 11:55:35;;;;;;;;;;;18.90;88.10;;;;;;5115632;27;20002;-65
2023/04/26 11:58:08;;;;;;;;;;;18.90;88.30;;;;;;5135202;27;20006;-61
2023/04/26 12:00:33;;;;;;;;;;;18.90;88.20;;;;;;5113877;27;20259;-61
2023/04/26 12:03:03;;;;;;;;;;;18.80;88.20;;;;;;5112726;28;19908;-59
2023/04/26 12:05:29;;;;;;;;;;;18.80;88.10;;;;;;5112850;28;20358;-59
2023/04/26 12:07:55;;;;;;;;;;;18.80;88.30;;;;;;5118777;28;19914;-59
2023/04/26 12:10:23;;;;;;;;;;;18.80;88.20;;;;;;5116415;27;20310;-57
2023/04/26 12:12:52;;;;;;;;;;;18.80;88.30;;;;;;5117671;28;20325;-59
2023/04/26 12:15:18;;;;;;;;;;;18.80;88.40;;;;;;5134900;27;19969;-62
2023/04/26 12:17:53;;;;;;;;;;;18.80;88.30;;;;;;5123716;27;20282;-62
2023/04/26 12:20:25;;;;;;;;;;;18.80;88.40;;;;;;5124271;28;20102;-63
2023/04/26 12:23:00;;;;;;;;;;;18.80;88.40;;;;;;5128432;27;20308;-63
2023/04/26 12:25:26;;;;;;;;;;;18.80;88.40;;;;;;5114599;27;20243;-62
2023/04/26 12:27:51;;;;;;;;;;;18.80;88.40;;;;;;5118166;28;19915;-64
2023/04/26 12:30:17;;;;;;;;;;;18.80;88.30;;;;;;5117109;28;19915;-61
2023/04/26 12:32:42;;;;;;;;;;;18.80;88.40;;;;;;5115388;27;19914;-56
2023/04/26 12:35:08;;;;;;;;;;;18.80;88.50;;;;;;5116197;28;19960;-60
2023/04/26 12:37:33;;;;;;;;;;;18.80;88.50;;;;;;5117275;28;19911;-62
2023/04/26 12:39:59;;;;;;;;;;;18.80;88.50;;;;;;5124835;27;19954;-56
2023/04/26 12:42:25;;;;;;;;;;;18.80;88.60;;;;;;5115404;28;19919;-59
2023/04/26 12:44:51;;;;;;;;;;;18.80;88.50;;;;;;5117085;28;19908;-58
2023/04/26 12:47:17;;;;;;;;;;;18.80;88.50;;;;;;5118612;27;20254;-61
2023/04/26 12:49:42;;;;;;;;;;;18.80;88.60;;;;;;5118048;27;19947;-57
2023/04/26 12:52:08;;;;;;;;;;;18.70;88.50;;;;;;5133234;27;19949;-58
2023/04/26 12:54:33;;;;;;;;;;;18.70;88.70;;;;;;5137329;27;20005;-56
2023/04/26 12:56:58;;;;;;;;;;;18.70;88.70;;;;;;5116608;27;19920;-60
2023/04/26 12:59:24;;;;;;;;;;;18.70;88.60;;;;;;5127745;27;19934;-57
2023/04/26 13:01:49;;;;;;;;;;;18.70;88.70;;;;;;5114158;28;19934;-60
2023/04/26 13:04:15;;;;;;;;;;;18.70;88.80;;;;;;5113740;27;19957;-61
2023/04/26 13:06:40;;;;;;;;;;;18.70;88.80;;;;;;5116158;28;19964;-60
2023/04/26 13:09:07;;;;;;;;;;;18.70;88.70;;;;;;5120191;27;19997;-62
2023/04/26 13:11:32;;;;;;;;;;;18.70;88.80;;;;;;5136988;27;19911;-59
2023/04/26 13:13:58;;;;;;;;;;;18.70;88.90;;;;;;5133212;27;19920;-57
2023/04/26 13:16:24;;;;;;;;;;;18.70;88.90;;;;;;5124928;27;20411;-55
2023/04/26 13:18:49;;;;;;;;;;;18.70;88.90;;;;;;5116035;28;19912;-57
2023/04/26 13:21:15;;;;;;;;;;;18.70;88.90;;;;;;5115533;27;19912;-59
2023/04/26 13:23:40;;;;;;;;;;;18.70;88.00;;;;;;5115703;28;19973;-55
2023/04/26 13:26:06;;;;;;;;;;;18.70;88.40;;;;;;5112557;28;19927;-57
2023/04/26 13:28:31;;;;;;;;;;;18.70;88.70;;;;;;5113942;28;19919;-55
2023/04/26 13:30:58;;;;;;;;;;;18.70;88.80;;;;;;5115410;28;19970;-57
2023/04/26 13:33:23;;;;;;;;;;;18.70;88.50;;;;;;5114671;28;19915;-58
2023/04/26 13:35:49;;;;;;;;;;;18.70;88.60;;;;;;5115616;28;19965;-59
2023/04/26 13:38:15;;;;;;;;;;;18.70;88.70;;;;;;5112922;27;19920;-59
2023/04/26 13:40:40;;;;;;;;;;;18.60;88.50;;;;;;5113573;28;20282;-60
2023/04/26 13:43:05;;;;;;;;;;;18.60;88.50;;;;;;5116775;28;20343;-57
2023/04/26 13:45:31;;;;;;;;;;;18.60;88.60;;;;;;5114827;28;20407;-59
2023/04/26 13:47:56;;;;;;;;;;;18.60;89.10;;;;;;5115145;28;19920;-60
2023/04/26 13:50:22;;;;;;;;;;;18.60;88.60;;;;;;5105951;28;19908;-57
2023/04/26 13:52:49;;;;;;;;;;;18.60;88.60;;;;;;5115141;28;19948;-58
2023/04/26 13:55:15;;;;;;;;;;;18.60;88.60;;;;;;5115856;27;20371;-59
2023/04/26 13:57:41;;;;;;;;;;;18.60;88.60;;;;;;5126076;27;19927;-58
2023/04/26 14:00:07;;;;;;;;;;;18.60;88.50;;;;;;5130805;27;19923;-55
2023/04/26 14:02:33;;;;;;;;;;;18.60;88.60;;;;;;5116463;27;19915;-52
2023/04/26 14:04:58;;;;;;;;;;;18.60;88.50;;;;;;5112545;28;19916;-57
2023/04/26 14:07:24;;;;;;;;;;;18.60;88.50;;;;;;5114821;28;19932;-58
2023/04/26 14:09:50;;;;;;;;;;;18.60;88.50;;;;;;5116607;28;19907;-57
2023/04/26 14:12:15;;;;;;;;;;;18.50;88.40;;;;;;5116282;28;20338;-59